Lake Cormorant, Mississippi
Current Conditions -  °F | °C
As of 10:54 PM on Thursday 30 Oct 2014 (Local Time) from KMEM Reporting Station
Broken Clouds Broken Clouds  
Wind Chill: 57°   Ceiling: 10000
Heat Index: 57°   Visibility: 10mi
Dew Point: 45°   Wind: 7mph
Humidity: 64%   Direction: 200°SSW
Pressure: 30"   Gusts: NA
Location:  34.9°N, 90.21°W
Report Text: KMEM 310354Z 20006KT 10SM SCT075 BKN100 14/07 A3000 RMK AO2 SLP159 OCNL LTGIC DSNT N-NE CB DSNT N-NE T01390072 $
Loading
Personal Weather Stations






























Interactive Weather Map
Tropical Storm Tracking
New forecast layout! Learn more

10-Day Weather Forecast

Advertisements
Track Severe Weather on mobile